Kapfenberg, Austria
Current Conditions -  °F | °C
As of 6:20 AM on Monday 20 Oct 2014 (Local Time) from LOWG Reporting Station
Light Fog Light Fog  
Wind Chill: 45°   Ceiling: Unl
Heat Index: 45°   Visibility: 0.31mi
Dew Point: 45°   Wind: 2mph
Humidity: 100%   Direction: 160°SSE
Pressure: 30.12"   Gusts: NA
Location:  47.45°N, 15.29°E
Report Text: LOWG 200420Z 16002KT 0500 R17/0375N R35/0450N BCFG SCT001 SCT300 07/07 Q1020 TEMPO 0300
Loading
Personal Weather Stations






























Interactive Weather Map
Tropical Storm Tracking
New forecast layout! Learn more

10-Day Weather Forecast

Advertisements
Track Severe Weather on mobile